Time;durP1;ratioP1;P1;durP2;ratioP2;P2;SDS_P1;SDS_P2;PMS_P1;PMS_P2;Temp;Humidity;BMP_temperature;BMP_pressure;BME280_temperature;BME280_humidity;BME280_pressure;Samples;Min_cycle;Max_cycle;Signal;HPM_P1;HPM_P2
2021/05/27 00:00:17;;;;;;;1.57;1.47;;;10.40;99.90;;;;;;4989477;28;20187;-79
2021/05/27 00:02:43;;;;;;;2.20;1.83;;;10.40;99.90;;;;;;4998167;28;20196;-80
2021/05/27 00:05:10;;;;;;;2.07;1.90;;;10.30;99.90;;;;;;5005722;28;20184;-79
2021/05/27 00:07:35;;;;;;;1.80;1.70;;;10.30;99.90;;;;;;5009386;28;20196;-79
2021/05/27 00:10:02;;;;;;;1.83;1.73;;;10.30;99.90;;;;;;4992356;28;20189;-80
2021/05/27 00:12:28;;;;;;;2.33;2.10;;;10.30;99.90;;;;;;5005132;28;20212;-79
2021/05/27 00:14:54;;;;;;;2.77;2.50;;;10.30;99.90;;;;;;4990332;28;20259;-79
2021/05/27 00:17:20;;;;;;;1.77;1.67;;;10.30;99.90;;;;;;4991092;28;20278;-79
2021/05/27 00:19:45;;;;;;;2.60;2.40;;;10.40;99.90;;;;;;5006281;28;20180;-79
2021/05/27 00:22:11;;;;;;;2.53;2.37;;;10.40;99.90;;;;;;4992168;28;20188;-80
2021/05/27 00:24:37;;;;;;;2.57;1.93;;;10.40;99.90;;;;;;4987596;28;20204;-81
2021/05/27 00:27:04;;;;;;;2.40;2.20;;;10.40;99.90;;;;;;4988186;28;20184;-81
2021/05/27 00:29:31;;;;;;;2.80;2.57;;;10.40;99.90;;;;;;4986355;28;20259;-82
2021/05/27 00:31:56;;;;;;;2.00;1.90;;;10.50;99.90;;;;;;5002887;28;20188;-77
2021/05/27 00:34:22;;;;;;;3.20;2.90;;;10.50;99.90;;;;;;4988324;28;20204;-80
2021/05/27 00:36:48;;;;;;;2.13;1.80;;;10.40;99.90;;;;;;4988235;28;20191;-77
2021/05/27 00:39:13;;;;;;;1.50;1.40;;;10.40;99.90;;;;;;4987930;28;20315;-81
2021/05/27 00:41:39;;;;;;;3.50;1.87;;;10.50;99.90;;;;;;4987918;28;20184;-81
2021/05/27 00:44:29;;;;;;;1.93;1.73;;;10.50;99.90;;;;;;4987072;28;20576;-78
2021/05/27 00:46:57;;;;;;;2.20;2.00;;;10.50;99.90;;;;;;4986847;28;20191;-77
2021/05/27 00:49:23;;;;;;;2.03;1.80;;;10.60;99.90;;;;;;4986182;28;20347;-79
2021/05/27 00:51:49;;;;;;;2.57;2.20;;;10.60;99.90;;;;;;5002518;28;20243;-78
2021/05/27 00:54:15;;;;;;;2.07;1.80;;;10.60;99.90;;;;;;4986594;28;20223;-77
2021/05/27 00:56:41;;;;;;;1.77;1.67;;;10.60;99.90;;;;;;5002460;28;20243;-78
2021/05/27 00:59:08;;;;;;;2.13;1.60;;;10.60;99.90;;;;;;4987689;28;20241;-81
2021/05/27 01:01:35;;;;;;;1.90;1.80;;;10.60;99.90;;;;;;4987648;28;20287;-80
2021/05/27 01:04:01;;;;;;;1.77;1.60;;;10.60;99.90;;;;;;4989250;28;20212;-80
2021/05/27 01:06:26;;;;;;;1.70;1.53;;;10.60;99.90;;;;;;4987873;28;20275;-79
2021/05/27 01:08:54;;;;;;;1.60;1.50;;;10.60;99.90;;;;;;4987193;28;20220;-80
2021/05/27 01:11:19;;;;;;;3.30;2.10;;;10.50;99.90;;;;;;4988202;28;20184;-80
2021/05/27 01:13:45;;;;;;;1.67;1.57;;;10.50;99.90;;;;;;4990527;28;20216;-80
2021/05/27 01:16:16;;;;;;;1.50;1.40;;;10.50;99.90;;;;;;4988907;28;20299;-78
2021/05/27 01:18:41;;;;;;;1.40;1.30;;;10.50;99.90;;;;;;4989562;28;20187;-80
2021/05/27 01:21:07;;;;;;;3.20;1.90;;;10.50;99.90;;;;;;4993600;28;20180;-79
2021/05/27 01:23:33;;;;;;;1.97;1.80;;;10.60;99.90;;;;;;5002486;28;20702;-76
2021/05/27 01:25:59;;;;;;;2.10;1.90;;;10.60;99.90;;;;;;5003199;28;20661;-79
2021/05/27 01:28:31;;;;;;;1.87;1.77;;;10.70;99.90;;;;;;5005858;28;20192;-76
2021/05/27 01:30:58;;;;;;;1.40;1.30;;;10.60;99.90;;;;;;4993046;28;20243;-78
2021/05/27 01:33:26;;;;;;;7.37;2.30;;;10.60;99.90;;;;;;5007696;28;20222;-79
2021/05/27 01:35:54;;;;;;;2.97;1.73;;;10.60;99.90;;;;;;4993148;28;20176;-79
2021/05/27 01:38:22;;;;;;;2.27;1.30;;;10.70;99.90;;;;;;4992825;28;20211;-79
2021/05/27 01:40:49;;;;;;;1.50;1.40;;;10.60;99.90;;;;;;4992192;28;20177;-80
2021/05/27 01:43:15;;;;;;;1.80;1.70;;;10.60;99.90;;;;;;4992830;28;20338;-80
2021/05/27 01:45:41;;;;;;;1.27;1.17;;;10.50;99.90;;;;;;4992777;28;20254;-79
2021/05/27 01:48:08;;;;;;;1.40;1.30;;;10.60;99.90;;;;;;4991632;28;20177;-79
2021/05/27 01:50:34;;;;;;;1.67;1.57;;;10.60;99.90;;;;;;5008539;28;20254;-78
2021/05/27 01:53:02;;;;;;;1.30;1.20;;;10.60;99.90;;;;;;4992625;28;20593;-79
2021/05/27 01:55:29;;;;;;;1.17;1.07;;;10.60;99.90;;;;;;4993216;28;20184;-79
2021/05/27 01:57:56;;;;;;;1.20;1.10;;;10.70;99.90;;;;;;4992625;28;20215;-79
2021/05/27 02:00:23;;;;;;;1.50;1.40;;;10.70;99.90;;;;;;5004561;28;20181;-78
2021/05/27 02:02:49;;;;;;;1.30;1.20;;;10.70;99.90;;;;;;4989158;28;20207;-78
2021/05/27 02:05:15;;;;;;;1.13;1.00;;;10.70;99.90;;;;;;4988998;28;20188;-79
2021/05/27 02:07:42;;;;;;;1.27;1.17;;;10.70;99.90;;;;;;4989126;28;20681;-78
2021/05/27 02:10:08;;;;;;;1.23;1.20;;;10.60;99.90;;;;;;4990164;28;20184;-80
2021/05/27 02:12:34;;;;;;;1.37;0.90;;;10.60;99.90;;;;;;4989090;28;20295;-77
2021/05/27 02:15:00;;;;;;;0.93;0.77;;;10.60;99.90;;;;;;4989401;28;20271;-80
2021/05/27 02:17:25;;;;;;;0.90;0.90;;;10.70;99.90;;;;;;4989867;28;20184;-80
2021/05/27 02:19:51;;;;;;;0.93;0.93;;;10.70;99.90;;;;;;5005734;28;20188;-78
2021/05/27 02:22:17;;;;;;;1.20;1.10;;;10.60;99.90;;;;;;4989696;28;20247;-77
2021/05/27 02:24:42;;;;;;;1.07;0.97;;;10.60;99.90;;;;;;5004879;28;20342;-80
2021/05/27 02:27:08;;;;;;;0.70;0.70;;;10.60;99.90;;;;;;4990989;28;20188;-78
2021/05/27 02:29:34;;;;;;;0.70;0.70;;;10.70;99.90;;;;;;4988950;28;20196;-80
2021/05/27 02:31:59;;;;;;;1.73;1.00;;;10.70;99.90;;;;;;4989974;28;20224;-79
2021/05/27 02:34:25;;;;;;;0.80;0.80;;;10.60;99.90;;;;;;4989722;28;20212;-81
2021/05/27 02:36:51;;;;;;;0.70;0.70;;;10.60;99.90;;;;;;4991205;28;20188;-79
2021/05/27 02:39:16;;;;;;;0.93;0.90;;;10.60;99.90;;;;;;4991015;28;20275;-79
2021/05/27 02:41:42;;;;;;;1.07;1.00;;;10.50;99.90;;;;;;4991419;28;20283;-80
2021/05/27 02:44:08;;;;;;;0.90;0.90;;;10.60;99.90;;;;;;5007615;28;20210;-79
2021/05/27 02:46:34;;;;;;;0.97;0.80;;;10.60;99.90;;;;;;4991978;28;20239;-81
2021/05/27 02:49:00;;;;;;;0.70;0.70;;;10.60;99.90;;;;;;4991382;28;20881;-80
2021/05/27 02:51:25;;;;;;;1.13;0.90;;;10.70;99.90;;;;;;4990977;28;20194;-80
2021/05/27 02:53:51;;;;;;;0.70;0.70;;;10.60;99.90;;;;;;4987680;28;21170;-79
2021/05/27 02:56:17;;;;;;;0.70;0.70;;;10.60;99.90;;;;;;5004432;28;20184;-80
2021/05/27 02:58:43;;;;;;;0.80;0.80;;;10.60;99.90;;;;;;4989656;28;20188;-81
2021/05/27 03:01:10;;;;;;;0.80;0.80;;;10.70;99.90;;;;;;4990551;28;20172;-79
2021/05/27 03:03:36;;;;;;;1.90;0.77;;;10.70;99.90;;;;;;4989513;28;20328;-80
2021/05/27 03:06:01;;;;;;;0.70;0.70;;;10.60;99.90;;;;;;4990427;28;20678;-78
2021/05/27 03:08:28;;;;;;;0.60;0.60;;;10.60;99.90;;;;;;4989744;28;20214;-80
2021/05/27 03:10:54;;;;;;;0.80;0.80;;;10.60;99.90;;;;;;4989747;28;20321;-79
2021/05/27 03:13:20;;;;;;;0.83;0.80;;;10.60;99.90;;;;;;4991902;28;20212;-79
2021/05/27 03:15:45;;;;;;;0.60;0.60;;;10.60;99.90;;;;;;4992248;28;20619;-80
2021/05/27 03:18:11;;;;;;;0.63;0.63;;;10.60;99.90;;;;;;4992258;28;20176;-79
2021/05/27 03:20:37;;;;;;;1.00;0.90;;;10.60;99.90;;;;;;4991546;28;20650;-79
2021/05/27 03:23:04;;;;;;;0.70;0.70;;;10.60;99.90;;;;;;5004201;28;20299;-80
2021/05/27 03:25:30;;;;;;;0.97;0.90;;;10.70;99.90;;;;;;4991214;28;20251;-79
2021/05/27 03:27:56;;;;;;;0.80;0.67;;;10.70;99.90;;;;;;4988980;28;20701;-78
2021/05/27 03:30:22;;;;;;;0.60;0.60;;;10.70;99.90;;;;;;4989524;28;20216;-78
2021/05/27 03:32:48;;;;;;;0.60;0.57;;;10.70;99.90;;;;;;5002575;28;20255;-78
2021/05/27 03:35:14;;;;;;;1.40;0.80;;;10.70;99.90;;;;;;4999312;28;20189;-79
2021/05/27 03:37:40;;;;;;;0.60;0.60;;;10.70;99.90;;;;;;4991842;28;20176;-80
2021/05/27 03:42:37;;;;;;;0.57;0.57;;;10.70;99.90;;;;;;4991969;28;20184;-79
2021/05/27 03:45:09;;;;;;;0.93;0.60;;;10.70;99.90;;;;;;4991548;28;20196;-79
2021/05/27 03:47:35;;;;;;;0.50;0.50;;;10.70;99.90;;;;;;4991263;28;20195;-79
2021/05/27 03:50:01;;;;;;;0.50;0.50;;;10.60;99.90;;;;;;4991598;28;20180;-79
2021/05/27 03:52:27;;;;;;;0.57;0.50;;;10.60;99.90;;;;;;4990265;28;20712;-79
2021/05/27 03:54:52;;;;;;;0.40;0.40;;;10.50;99.90;;;;;;4990819;28;21241;-79
2021/05/27 03:57:18;;;;;;;0.50;0.50;;;10.60;99.90;;;;;;5005646;28;20191;-80
2021/05/27 04:02:27;;;;;;;0.43;0.43;;;10.60;99.90;;;;;;4988234;28;20183;-77
2021/05/27 04:07:37;;;;;;;0.33;0.33;;;10.70;99.90;;;;;;4990169;28;20203;-81
2021/05/27 04:10:04;;;;;;;0.40;0.40;;;10.70;99.90;;;;;;4991366;28;20184;-79
2021/05/27 04:12:45;;;;;;;0.37;0.37;;;10.80;99.90;;;;;;4990704;28;20215;-79
2021/05/27 04:15:28;;;;;;;0.30;0.30;;;10.80;99.90;;;;;;4991320;28;20697;-79
2021/05/27 04:17:56;;;;;;;0.40;0.40;;;10.70;99.90;;;;;;4991793;28;20223;-79
2021/05/27 04:20:33;;;;;;;0.30;0.30;;;10.70;99.90;;;;;;4991864;28;20312;-79
2021/05/27 04:23:00;;;;;;;0.37;0.37;;;10.80;99.90;;;;;;5006181;28;20200;-79
2021/05/27 04:25:26;;;;;;;0.47;0.47;;;10.80;99.90;;;;;;4990743;28;20192;-79
2021/05/27 04:27:54;;;;;;;1.67;0.50;;;10.80;99.90;;;;;;4991747;28;20176;-80
2021/05/27 04:30:21;;;;;;;0.40;0.40;;;10.80;99.90;;;;;;5006130;28;20184;-79
2021/05/27 04:33:07;;;;;;;0.30;0.30;;;10.80;99.90;;;;;;4991588;28;20200;-79
2021/05/27 04:35:40;;;;;;;0.30;0.30;;;10.80;99.90;;;;;;4990961;28;20194;-80
2021/05/27 04:38:10;;;;;;;0.30;0.30;;;10.80;99.90;;;;;;4990730;28;21113;-79
2021/05/27 04:40:40;;;;;;;0.30;0.30;;;10.80;99.90;;;;;;4991007;28;20242;-79
2021/05/27 04:43:06;;;;;;;0.30;0.30;;;10.80;99.90;;;;;;4990749;28;20211;-80
2021/05/27 04:45:32;;;;;;;0.30;0.30;;;10.80;99.90;;;;;;4989863;28;20769;-79
2021/05/27 04:47:58;;;;;;;0.30;0.30;;;10.80;99.90;;;;;;4987567;28;20211;-80
2021/05/27 04:50:24;;;;;;;0.20;0.20;;;10.70;99.90;;;;;;5002233;28;20231;-77
2021/05/27 04:52:51;;;;;;;0.30;0.30;;;10.70;99.90;;;;;;4986136;28;20818;-78
2021/05/27 04:55:19;;;;;;;0.20;0.20;;;10.70;99.90;;;;;;5005590;28;20291;-78
2021/05/27 04:57:45;;;;;;;0.30;0.30;;;10.70;99.90;;;;;;4989356;28;20184;-80
2021/05/27 05:00:14;;;;;;;0.27;0.27;;;10.70;99.90;;;;;;4989401;28;20180;-79
2021/05/27 05:02:40;;;;;;;0.30;0.30;;;10.80;99.90;;;;;;5007875;28;20191;-79
2021/05/27 05:05:11;;;;;;;0.30;0.30;;;10.90;99.90;;;;;;5009388;28;20188;-80
2021/05/27 05:07:39;;;;;;;0.20;0.20;;;10.90;99.90;;;;;;4994264;28;20184;-79
2021/05/27 05:10:06;;;;;;;0.20;0.20;;;10.90;99.90;;;;;;4994819;28;20184;-79
2021/05/27 05:12:44;;;;;;;0.40;0.40;;;11.10;99.90;;;;;;4993889;28;20212;-80
2021/05/27 05:15:11;;;;;;;0.20;0.20;;;11.10;99.90;;;;;;4990724;28;20175;-78
2021/05/27 05:17:37;;;;;;;0.20;0.20;;;11.10;99.90;;;;;;4990565;28;20181;-77
2021/05/27 05:20:03;;;;;;;0.20;0.20;;;11.20;99.90;;;;;;4991297;28;20238;-79
2021/05/27 05:22:29;;;;;;;0.30;0.30;;;11.40;99.90;;;;;;5007194;28;20184;-81
2021/05/27 05:24:56;;;;;;;0.20;0.20;;;11.40;99.90;;;;;;4993176;28;20184;-80
2021/05/27 05:27:22;;;;;;;0.30;0.27;;;11.40;99.90;;;;;;4992825;28;20199;-77
2021/05/27 05:29:48;;;;;;;0.20;0.20;;;11.40;99.90;;;;;;5008193;28;20255;-77
2021/05/27 05:32:13;;;;;;;0.20;0.20;;;12.00;99.90;;;;;;5008491;28;20211;-79
2021/05/27 05:34:39;;;;;;;0.40;0.40;;;13.80;99.90;;;;;;4993639;28;20215;-80
2021/05/27 05:37:06;;;;;;;0.20;0.20;;;14.80;99.90;;;;;;5008241;28;20180;-79
2021/05/27 05:39:31;;;;;;;0.30;0.20;;;16.20;99.90;;;;;;5008179;28;20275;-81
2021/05/27 05:41:57;;;;;;;0.20;0.20;;;16.20;99.90;;;;;;4993851;28;20264;-79
2021/05/27 05:44:23;;;;;;;0.35;0.20;;;15.40;99.90;;;;;;4992112;28;20243;-78
2021/05/27 05:46:48;;;;;;;0.20;0.20;;;14.50;99.90;;;;;;4993018;28;20188;-79
2021/05/27 05:49:14;;;;;;;0.20;0.20;;;13.90;99.90;;;;;;4992762;28;20192;-80
2021/05/27 05:51:40;;;;;;;0.20;0.20;;;13.60;99.90;;;;;;4982465;28;20215;-79
2021/05/27 05:54:05;;;;;;;2.05;0.20;;;13.70;99.90;;;;;;4990464;28;20286;-80
2021/05/27 05:56:31;;;;;;;0.20;0.20;;;13.90;99.90;;;;;;5007390;28;20185;-77
2021/05/27 05:58:56;;;;;;;0.10;0.10;;;14.10;99.90;;;;;;4992293;28;20180;-81
2021/05/27 06:01:22;;;;;;;0.20;0.20;;;14.30;99.90;;;;;;4992171;28;20195;-79
2021/05/27 06:03:48;;;;;;;0.38;0.30;;;15.00;99.90;;;;;;4991704;28;20204;-78
2021/05/27 06:06:13;;;;;;;0.20;0.20;;;15.80;99.90;;;;;;4992092;28;20191;-79
2021/05/27 06:08:40;;;;;;;0.20;0.20;;;16.90;99.90;;;;;;4989524;28;20203;-81
2021/05/27 06:11:06;;;;;;;0.25;0.25;;;17.00;99.90;;;;;;5003670;28;20684;-77
2021/05/27 06:13:31;;;;;;;0.15;0.13;;;16.40;99.90;;;;;;4989212;28;20219;-77
2021/05/27 06:15:57;;;;;;;0.20;0.20;;;15.50;99.90;;;;;;5004911;28;20199;-78
2021/05/27 06:18:24;;;;;;;1.55;0.30;;;15.00;99.90;;;;;;4987764;28;20291;-77
2021/05/27 06:20:49;;;;;;;0.20;0.20;;;14.50;99.90;;;;;;4986892;28;20542;-77
2021/05/27 06:23:15;;;;;;;0.30;0.30;;;14.00;99.90;;;;;;4987640;28;20214;-77
2021/05/27 06:25:41;;;;;;;0.20;0.20;;;13.70;99.90;;;;;;4986531;28;20184;-77
2021/05/27 06:28:06;;;;;;;0.22;0.22;;;14.00;99.90;;;;;;4987633;28;20184;-77
2021/05/27 06:30:32;;;;;;;0.20;0.20;;;14.20;99.90;;;;;;4987877;28;20254;-76
2021/05/27 06:33:00;;;;;;;0.20;0.20;;;14.30;99.90;;;;;;4988064;28;20250;-79
2021/05/27 06:35:27;;;;;;;0.65;0.20;;;14.30;99.90;;;;;;4987613;28;20286;-79
2021/05/27 06:37:53;;;;;;;0.30;0.30;;;13.70;99.90;;;;;;4987977;28;20183;-79
2021/05/27 06:40:25;;;;;;;0.45;0.30;;;13.50;99.90;;;;;;4997262;28;20606;-78
2021/05/27 06:42:51;;;;;;;0.30;0.30;;;13.50;99.90;;;;;;4987617;28;20204;-79
2021/05/27 06:45:18;;;;;;;0.52;0.30;;;13.50;99.90;;;;;;4987696;28;20650;-79
2021/05/27 06:47:45;;;;;;;0.20;0.20;;;13.50;99.90;;;;;;4986079;28;20195;-79
2021/05/27 06:50:11;;;;;;;0.60;0.30;;;13.40;99.90;;;;;;4993895;28;20184;-79
2021/05/27 06:52:37;;;;;;;0.20;0.20;;;13.20;99.90;;;;;;4986550;28;20227;-80
2021/05/27 06:55:05;;;;;;;0.25;0.25;;;13.10;99.90;;;;;;4986712;28;20180;-79
2021/05/27 06:57:31;;;;;;;0.20;0.20;;;12.90;99.90;;;;;;4986514;28;20188;-78
2021/05/27 06:59:56;;;;;;;0.20;0.20;;;12.90;99.90;;;;;;4987000;28;20327;-78
2021/05/27 07:02:22;;;;;;;0.30;0.30;;;12.80;99.90;;;;;;4987218;28;20226;-80
2021/05/27 07:04:47;;;;;;;0.60;0.30;;;12.70;99.90;;;;;;4988045;28;20262;-77
2021/05/27 07:07:13;;;;;;;0.30;0.30;;;12.80;99.90;;;;;;4987201;28;20209;-78
2021/05/27 07:09:39;;;;;;;0.30;0.30;;;12.80;99.90;;;;;;4987730;28;21136;-77
2021/05/27 07:12:08;;;;;;;0.40;0.40;;;12.90;99.90;;;;;;4986825;28;20172;-79
2021/05/27 07:14:34;;;;;;;0.60;0.50;;;12.70;99.90;;;;;;4985754;28;20212;-77
2021/05/27 07:17:04;;;;;;;0.95;0.30;;;12.80;99.90;;;;;;4983800;28;20187;-76
2021/05/27 07:19:29;;;;;;;0.30;0.30;;;12.90;99.90;;;;;;4984585;28;21006;-83
2021/05/27 07:21:55;;;;;;;0.60;0.60;;;13.20;99.90;;;;;;4987283;28;20188;-79
2021/05/27 07:24:20;;;;;;;0.40;0.30;;;13.00;99.90;;;;;;5001202;28;20591;-77
2021/05/27 07:26:47;;;;;;;0.30;0.30;;;12.80;99.90;;;;;;5002319;28;20318;-77
2021/05/27 07:29:12;;;;;;;0.30;0.30;;;12.80;99.90;;;;;;5001537;28;20587;-78
2021/05/27 07:31:38;;;;;;;0.30;0.30;;;12.80;99.90;;;;;;4987953;28;20294;-78
2021/05/27 07:34:07;;;;;;;0.25;0.25;;;12.80;99.90;;;;;;5001918;28;20212;-77
2021/05/27 07:36:33;;;;;;;0.30;0.30;;;13.00;99.90;;;;;;4987087;28;20661;-79
2021/05/27 07:38:59;;;;;;;0.40;0.40;;;12.90;99.90;;;;;;5001842;28;20187;-78
2021/05/27 07:41:24;;;;;;;0.82;0.40;;;12.70;99.90;;;;;;4987402;28;20339;-79
2021/05/27 07:43:51;;;;;;;0.40;0.40;;;12.50;99.90;;;;;;4985940;28;20704;-79
2021/05/27 07:46:16;;;;;;;1.00;0.50;;;12.40;99.90;;;;;;4983713;28;20647;-78
2021/05/27 07:48:43;;;;;;;0.40;0.40;;;12.50;99.90;;;;;;4999440;28;20214;-76
2021/05/27 07:51:08;;;;;;;0.30;0.30;;;12.60;99.90;;;;;;4987859;28;20210;-80
2021/05/27 07:53:34;;;;;;;0.22;0.22;;;12.60;99.90;;;;;;4986027;28;21062;-79
2021/05/27 07:56:00;;;;;;;1.17;0.50;;;12.50;99.90;;;;;;4987120;28;20194;-77
2021/05/27 07:58:25;;;;;;;0.22;0.22;;;12.50;99.90;;;;;;5001230;28;20192;-78
2021/05/27 08:00:51;;;;;;;0.93;0.73;;;12.50;99.90;;;;;;4986167;28;20229;-81
2021/05/27 08:03:17;;;;;;;1.10;0.30;;;12.50;99.90;;;;;;5000860;28;20303;-79
2021/05/27 08:05:42;;;;;;;0.30;0.30;;;12.40;99.90;;;;;;4985119;28;20192;-77
2021/05/27 08:08:08;;;;;;;0.40;0.40;;;12.80;99.90;;;;;;4984034;28;20192;-79
2021/05/27 08:10:33;;;;;;;0.63;0.60;;;12.90;99.90;;;;;;5001299;28;20195;-80
2021/05/27 08:12:59;;;;;;;0.40;0.35;;;12.80;99.90;;;;;;4986189;28;20224;-79
2021/05/27 08:15:25;;;;;;;0.30;0.30;;;12.80;99.90;;;;;;5000681;28;20230;-77
2021/05/27 08:17:50;;;;;;;0.30;0.30;;;13.10;99.90;;;;;;5000706;28;20223;-78
2021/05/27 08:20:16;;;;;;;0.20;0.20;;;13.30;99.90;;;;;;4986673;28;20339;-79
2021/05/27 08:22:41;;;;;;;0.20;0.20;;;13.30;99.90;;;;;;4986714;28;20192;-81
2021/05/27 08:25:08;;;;;;;0.82;0.50;;;13.30;99.90;;;;;;4986113;28;20188;-76
2021/05/27 08:27:34;;;;;;;1.80;0.52;;;13.20;99.90;;;;;;5001192;28;20188;-77
2021/05/27 08:30:00;;;;;;;0.30;0.30;;;13.10;99.90;;;;;;5001401;28;20210;-76
2021/05/27 08:32:26;;;;;;;0.50;0.50;;;13.00;99.90;;;;;;4986247;28;20188;-78
2021/05/27 08:34:52;;;;;;;0.30;0.30;;;12.90;99.90;;;;;;5000685;28;20204;-78
2021/05/27 08:37:17;;;;;;;0.30;0.30;;;12.80;99.90;;;;;;5003109;28;20191;-75
2021/05/27 08:39:43;;;;;;;0.30;0.30;;;12.80;99.90;;;;;;4990379;28;20319;-80
2021/05/27 08:42:08;;;;;;;0.90;0.52;;;13.10;99.90;;;;;;4989292;28;20468;-78
2021/05/27 08:44:36;;;;;;;0.43;0.35;;;13.70;99.90;;;;;;4989728;28;20692;-79
2021/05/27 08:47:02;;;;;;;0.30;0.30;;;14.20;99.90;;;;;;5004486;28;20180;-75
2021/05/27 08:49:29;;;;;;;0.30;0.30;;;14.70;99.90;;;;;;4988040;28;20180;-77
2021/05/27 08:51:55;;;;;;;0.30;0.30;;;14.90;99.90;;;;;;5004033;28;20188;-81
2021/05/27 08:54:21;;;;;;;0.20;0.20;;;14.80;99.90;;;;;;4987810;28;20239;-79
2021/05/27 08:56:46;;;;;;;0.28;0.28;;;14.40;99.90;;;;;;4989408;28;20184;-78
2021/05/27 08:59:12;;;;;;;0.30;0.30;;;14.70;99.90;;;;;;4988933;28;20181;-79
2021/05/27 09:02:04;;;;;;;0.15;0.15;;;15.00;99.90;;;;;;5004987;28;20199;-76
2021/05/27 09:04:30;;;;;;;0.20;0.20;;;15.30;99.90;;;;;;4989026;28;20456;-76
2021/05/27 09:06:56;;;;;;;0.20;0.20;;;14.80;99.90;;;;;;4989471;28;20202;-79
2021/05/27 09:09:22;;;;;;;0.20;0.20;;;14.80;99.90;;;;;;5004184;28;20290;-79
2021/05/27 09:11:48;;;;;;;0.30;0.30;;;14.80;99.90;;;;;;5004359;28;20188;-76
2021/05/27 09:14:14;;;;;;;0.30;0.30;;;14.70;99.90;;;;;;4989212;28;20701;-79
2021/05/27 09:16:59;;;;;;;0.20;0.20;;;14.60;99.90;;;;;;4989380;28;20184;-78
2021/05/27 09:19:25;;;;;;;0.25;0.25;;;14.30;99.90;;;;;;4989125;28;20215;-81
2021/05/27 09:21:52;;;;;;;0.50;0.20;;;14.40;99.90;;;;;;5001333;28;20212;-77
2021/05/27 09:24:37;;;;;;;0.22;0.22;;;14.20;99.90;;;;;;4986348;28;20203;-77
2021/05/27 09:27:03;;;;;;;0.32;0.30;;;14.20;99.90;;;;;;4987283;28;20189;-79
2021/05/27 09:29:42;;;;;;;0.20;0.20;;;14.10;99.90;;;;;;4987912;28;20199;-76
2021/05/27 09:32:07;;;;;;;0.35;0.35;;;14.10;99.90;;;;;;5003373;28;20179;-78
2021/05/27 09:34:42;;;;;;;0.17;0.17;;;14.10;99.90;;;;;;4986686;28;20247;-78
2021/05/27 09:37:21;;;;;;;0.20;0.20;;;14.10;99.90;;;;;;4986985;28;21235;-78
2021/05/27 09:39:47;;;;;;;0.20;0.20;;;14.10;99.90;;;;;;5002295;28;20184;-81
2021/05/27 09:42:13;;;;;;;0.20;0.20;;;14.20;99.90;;;;;;4988414;28;20790;-79
2021/05/27 09:44:39;;;;;;;0.30;0.30;;;14.30;99.90;;;;;;5002409;28;20200;-78
2021/05/27 09:47:05;;;;;;;0.20;0.20;;;14.10;99.90;;;;;;4987886;28;20652;-79
2021/05/27 09:49:33;;;;;;;0.20;0.20;;;14.30;99.90;;;;;;4988469;28;20185;-79
2021/05/27 09:52:14;;;;;;;0.10;0.10;;;14.40;99.90;;;;;;4987611;28;20259;-79
2021/05/27 09:54:57;;;;;;;0.20;0.20;;;14.60;99.90;;;;;;4987451;28;20212;-78
2021/05/27 09:57:27;;;;;;;0.20;0.20;;;15.00;99.90;;;;;;5001820;28;20180;-79
2021/05/27 09:59:54;;;;;;;0.20;0.20;;;15.00;99.90;;;;;;4987799;28;20267;-78
2021/05/27 10:02:21;;;;;;;0.20;0.20;;;14.60;99.90;;;;;;4987378;28;20323;-79
2021/05/27 10:04:55;;;;;;;0.50;0.20;;;14.20;99.90;;;;;;4988013;28;20223;-77
2021/05/27 10:07:36;;;;;;;0.10;0.10;;;14.10;99.90;;;;;;5001998;28;20180;-78
2021/05/27 10:10:05;;;;;;;0.30;0.30;;;13.90;99.90;;;;;;5001786;28;20184;-79
2021/05/27 10:12:42;;;;;;;0.20;0.20;;;13.90;99.90;;;;;;4987622;28;20220;-78
2021/05/27 10:15:12;;;;;;;0.28;0.28;;;14.00;99.90;;;;;;4985681;28;20187;-79
2021/05/27 10:17:39;;;;;;;0.20;0.20;;;14.00;99.90;;;;;;4987835;28;20300;-80
2021/05/27 10:20:08;;;;;;;0.30;0.30;;;14.00;99.90;;;;;;5003196;28;20184;-77
2021/05/27 10:22:34;;;;;;;0.20;0.20;;;13.80;99.90;;;;;;5002730;28;20189;-78
2021/05/27 10:25:03;;;;;;;0.30;0.30;;;13.40;99.90;;;;;;4987986;28;20336;-82
2021/05/27 10:27:28;;;;;;;0.30;0.30;;;13.10;99.90;;;;;;5002405;28;20204;-79
2021/05/27 10:29:54;;;;;;;0.35;0.35;;;13.10;99.90;;;;;;4988291;28;20196;-82
2021/05/27 10:32:20;;;;;;;0.20;0.20;;;13.10;99.90;;;;;;5002473;28;20191;-79
2021/05/27 10:34:50;;;;;;;0.40;0.40;;;13.00;99.90;;;;;;4986434;28;20200;-79
2021/05/27 10:37:39;;;;;;;0.30;0.30;;;13.10;99.90;;;;;;4986361;28;20681;-78
2021/05/27 10:40:20;;;;;;;0.20;0.20;;;12.90;99.90;;;;;;5001226;28;20916;-78
2021/05/27 10:43:03;;;;;;;0.20;0.20;;;12.90;99.90;;;;;;4986720;28;20188;-77
2021/05/27 10:45:35;;;;;;;0.50;0.40;;;13.00;99.90;;;;;;5004348;28;20185;-80
2021/05/27 10:48:16;;;;;;;0.38;0.32;;;13.20;99.90;;;;;;5003274;28;20189;-81
2021/05/27 10:53:38;;;;;;;0.45;0.45;;;14.20;99.90;;;;;;4986191;28;20247;-77
2021/05/27 10:56:05;;;;;;;0.25;0.22;;;14.60;99.90;;;;;;4985825;28;20243;-79
2021/05/27 10:58:47;;;;;;;0.40;0.32;;;14.90;99.90;;;;;;4984939;28;20275;-80
2021/05/27 11:01:13;;;;;;;0.30;0.30;;;14.70;99.90;;;;;;5000806;28;20177;-77
2021/05/27 11:03:53;;;;;;;0.30;0.30;;;14.30;99.90;;;;;;4987310;28;20271;-81
2021/05/27 11:06:30;;;;;;;0.38;0.30;;;13.60;99.90;;;;;;4986546;28;20599;-77
2021/05/27 11:11:41;;;;;;;0.32;0.32;;;13.10;99.90;;;;;;4987670;28;20196;-78
2021/05/27 11:14:23;;;;;;;0.20;0.20;;;13.00;99.90;;;;;;4985329;28;20219;-78
2021/05/27 11:17:04;;;;;;;0.95;0.40;;;13.00;99.90;;;;;;4986159;28;20242;-80
2021/05/27 11:25:24;;;;;;;0.20;0.20;;;13.10;99.90;;;;;;4985731;28;20180;-79
2021/05/27 11:28:05;;;;;;;0.88;0.60;;;13.20;99.90;;;;;;4983560;28;20184;-79
2021/05/27 11:30:40;;;;;;;0.50;0.40;;;13.10;99.90;;;;;;4984903;28;20263;-79
2021/05/27 11:33:14;;;;;;;0.28;0.28;;;13.10;99.90;;;;;;4983803;28;20211;-78
2021/05/27 11:35:42;;;;;;;1.25;0.50;;;13.10;99.90;;;;;;4984266;28;20275;-78
2021/05/27 11:38:15;;;;;;;0.40;0.40;;;13.10;99.90;;;;;;4983715;28;20199;-79
2021/05/27 11:40:52;;;;;;;0.28;0.28;;;13.10;99.90;;;;;;4983780;28;20638;-78
2021/05/27 11:43:25;;;;;;;0.35;0.35;;;13.50;99.90;;;;;;4984089;28;20227;-78
2021/05/27 11:45:53;;;;;;;0.90;0.30;;;13.80;99.90;;;;;;4983869;28;20186;-79
2021/05/27 11:50:45;;;;;;;0.43;0.43;;;13.90;99.90;;;;;;4984435;28;20436;-75
2021/05/27 11:53:11;;;;;;;1.17;0.70;;;13.80;99.90;;;;;;4983424;28;20230;-78
2021/05/27 11:55:38;;;;;;;0.35;0.35;;;13.70;99.90;;;;;;4998095;28;20176;-79
2021/05/27 11:58:04;;;;;;;0.20;0.20;;;13.80;99.90;;;;;;4983490;28;20188;-80
2021/05/27 12:00:30;;;;;;;0.40;0.40;;;13.90;99.90;;;;;;4998808;28;20200;-78
2021/05/27 12:02:59;;;;;;;0.55;0.45;;;14.10;99.90;;;;;;4982812;28;20265;-76
2021/05/27 12:05:29;;;;;;;0.47;0.43;;;14.10;99.90;;;;;;4983021;28;20193;-77
2021/05/27 12:08:02;;;;;;;0.20;0.20;;;14.00;99.90;;;;;;4982959;28;20180;-78
2021/05/27 12:10:36;;;;;;;0.30;0.30;;;14.20;99.90;;;;;;4982672;28;20679;-78
2021/05/27 12:13:03;;;;;;;0.30;0.30;;;14.40;99.90;;;;;;4983165;28;20337;-78
2021/05/27 12:15:30;;;;;;;0.30;0.30;;;14.40;99.90;;;;;;4972548;28;20176;-77
2021/05/27 12:17:57;;;;;;;2.67;0.38;;;14.30;99.90;;;;;;4997415;28;20195;-78
2021/05/27 12:20:35;;;;;;;0.40;0.40;;;14.40;99.90;;;;;;4982236;28;20184;-78
2021/05/27 12:23:13;;;;;;;0.50;0.32;;;14.70;99.90;;;;;;4983103;28;20673;-78
2021/05/27 12:25:41;;;;;;;0.30;0.30;;;14.90;99.90;;;;;;4984044;28;20556;-79
2021/05/27 12:28:16;;;;;;;0.40;0.30;;;15.00;99.90;;;;;;4985548;28;20210;-77
2021/05/27 12:30:45;;;;;;;0.30;0.30;;;15.00;99.90;;;;;;4983187;28;20282;-74
2021/05/27 12:33:16;;;;;;;0.20;0.20;;;14.80;99.90;;;;;;4983690;28;20208;-76
2021/05/27 12:35:42;;;;;;;0.20;0.20;;;15.00;99.90;;;;;;4999221;28;20204;-77
2021/05/27 12:38:17;;;;;;;0.20;0.20;;;15.50;99.90;;;;;;4983490;28;20219;-76
2021/05/27 12:40:48;;;;;;;0.30;0.28;;;15.90;99.90;;;;;;4983497;28;20207;-76
2021/05/27 12:43:23;;;;;;;0.50;0.20;;;16.10;99.90;;;;;;4983547;28;20206;-76
2021/05/27 12:45:50;;;;;;;0.30;0.30;;;16.20;99.90;;;;;;4996621;28;20188;-76
2021/05/27 12:48:21;;;;;;;0.35;0.35;;;16.00;99.90;;;;;;4999446;28;20180;-76
2021/05/27 12:51:06;;;;;;;0.35;0.35;;;15.80;99.90;;;;;;5008971;28;20219;-75
2021/05/27 12:53:32;;;;;;;0.30;0.30;;;16.10;99.90;;;;;;4982155;28;20561;-75
2021/05/27 12:56:15;;;;;;;0.20;0.20;;;16.20;99.90;;;;;;4982921;28;20187;-76
2021/05/27 12:58:46;;;;;;;0.32;0.30;;;16.20;99.90;;;;;;4983419;28;20554;-76
2021/05/27 13:01:14;;;;;;;0.90;0.30;;;16.00;99.90;;;;;;4983531;28;20191;-75
2021/05/27 13:03:50;;;;;;;0.40;0.22;;;16.20;99.90;;;;;;4998448;28;20204;-75
2021/05/27 13:06:21;;;;;;;0.95;0.30;;;16.80;99.90;;;;;;4983582;28;20271;-75
2021/05/27 13:08:47;;;;;;;0.22;0.22;;;16.90;99.90;;;;;;4983491;28;20267;-75
2021/05/27 13:11:34;;;;;;;0.28;0.28;;;16.90;99.90;;;;;;4983607;28;20299;-79
2021/05/27 13:14:11;;;;;;;0.40;0.35;;;16.60;99.90;;;;;;4982735;28;20270;-80